Kaoh Kong Airport


Codes: VDKK/KKZ
Name: Kaoh Kong Airport
City: Kaoh Kong
Country: Cambodia
Elevation: 0 ft.

Photos at Kaoh Kong Airport


   Photos courtesy of SpottingLog. You can add your own sightings and photos by signing up for a free trial today.



No photos found.

Weather at Kaoh Kong Airport


Time (UTC)DescriptionTempratureWindCloud coverageVisibilityPressureHumidity
21-Jun-2024 12:00Moderate Rain27°C7 mph, W100%10000m1005hPa87%
21-Jun-2024 15:00Light Rain27°C9 mph, W97%10000m1007hPa87%
21-Jun-2024 18:00Moderate Rain27°C13 mph, W97%10000m1006hPa86%
21-Jun-2024 21:00Moderate Rain27°C16 mph, W99%4794m1005hPa87%
22-Jun-2024 00:00Moderate Rain27°C16 mph, W99%6449m1006hPa89%
22-Jun-2024 03:00Heavy Intensity Rain26°C16 mph, W100%1555m1006hPa96%
22-Jun-2024 06:00Heavy Intensity Rain26°C16 mph, W100%2635m1005hPa95%
22-Jun-2024 09:00Moderate Rain26°C13 mph, W100%9308m1004hPa91%
22-Jun-2024 12:00Moderate Rain26°C18 mph, W100%2975m1006hPa93%
22-Jun-2024 15:00Moderate Rain26°C22 mph, W100%4662m1008hPa91%
22-Jun-2024 18:00Moderate Rain26°C25 mph, W100%4469m1006hPa91%
22-Jun-2024 21:00Moderate Rain26°C20 mph, W100%3867m1005hPa89%
23-Jun-2024 00:00Moderate Rain27°C20 mph, W100%5429m1007hPa87%
23-Jun-2024 03:00Heavy Intensity Rain26°C20 mph, W100%3254m1008hPa92%
23-Jun-2024 06:00Heavy Intensity Rain26°C22 mph, W100%2745m1006hPa92%
23-Jun-2024 09:00Heavy Intensity Rain26°C22 mph, W100%2253m1005hPa92%
23-Jun-2024 12:00Heavy Intensity Rain26°C20 mph, W100%2953m1006hPa90%
23-Jun-2024 15:00Heavy Intensity Rain27°C20 mph, W100%4177m1008hPa86%
23-Jun-2024 18:00Moderate Rain27°C20 mph, W100%3819m1006hPa88%
23-Jun-2024 21:00Moderate Rain26°C20 mph, W100%3071m1006hPa91%
24-Jun-2024 00:00Heavy Intensity Rain27°C20 mph, W100%3399m1007hPa88%
24-Jun-2024 03:00Moderate Rain27°C16 mph, SW100%4870m1008hPa87%
24-Jun-2024 06:00Moderate Rain27°C16 mph, W100%4708m1006hPa87%
24-Jun-2024 09:00Moderate Rain27°C16 mph, SW100%6202m1006hPa89%
24-Jun-2024 12:00Moderate Rain27°C16 mph, W100%4530m1007hPa87%
24-Jun-2024 15:00Moderate Rain26°C16 mph, W100%5370m1009hPa88%
24-Jun-2024 18:00Heavy Intensity Rain26°C13 mph, SW100%3368m1007hPa93%
24-Jun-2024 21:00Heavy Intensity Rain26°C13 mph, SW100%2729m1005hPa95%
25-Jun-2024 00:00Moderate Rain26°C16 mph, SW100%2676m1007hPa92%
25-Jun-2024 03:00Moderate Rain26°C16 mph, SW100%2258m1007hPa92%
25-Jun-2024 06:00Heavy Intensity Rain27°C18 mph, SW100%4243m1006hPa91%
25-Jun-2024 09:00Moderate Rain27°C13 mph, SW100%5763m1005hPa87%
25-Jun-2024 12:00Moderate Rain27°C9 mph, SW100%5247m1007hPa88%
25-Jun-2024 15:00Moderate Rain27°C13 mph, SW100%3591m1009hPa91%
25-Jun-2024 18:00Moderate Rain26°C9 mph, SW100%2869m1008hPa94%
25-Jun-2024 21:00Moderate Rain26°C9 mph, SW100%3352m1006hPa93%
26-Jun-2024 00:00Moderate Rain26°C11 mph, SW100%4179m1008hPa92%
26-Jun-2024 03:00Moderate Rain26°C13 mph, SW100%6541m1009hPa90%
26-Jun-2024 06:00Moderate Rain26°C11 mph, SW100%5623m1007hPa91%
26-Jun-2024 09:00Moderate Rain26°C7 mph, SW100%10000m1006hPa88%